createdAt,value
2018-03-17T00:05:08.926Z,26.4
2018-03-17T00:08:05.837Z,26.4
2018-03-17T00:19:54.325Z,26.6
2018-03-17T00:22:51.261Z,26.6
2018-03-17T00:25:47.992Z,26.7
2018-03-17T00:28:44.839Z,26.8
2018-03-17T00:31:41.960Z,26.8
2018-03-17T00:34:38.867Z,27
2018-03-17T00:37:35.918Z,27.2
2018-03-17T00:43:30.417Z,27.4
2018-03-17T00:46:27.314Z,27.4
2018-03-17T00:49:24.348Z,27.5
2018-03-17T00:52:20.914Z,27.6
2018-03-17T00:55:17.970Z,27.8
2018-03-17T00:58:14.893Z,27.8
2018-03-17T01:04:08.959Z,28
2018-03-17T01:10:03.022Z,28.1
2018-03-17T01:12:59.905Z,28.2
2018-03-17T01:15:57.462Z,28.3
2018-03-17T01:18:53.918Z,28.4
2018-03-17T01:21:51.430Z,28.4
2018-03-17T01:24:47.943Z,28.5
2018-03-17T01:27:44.984Z,28.6
2018-03-17T01:30:41.926Z,28.7
2018-03-17T01:33:38.969Z,28.8
2018-03-17T01:42:30.027Z,29.1
2018-03-17T01:45:27.391Z,29.2
2018-03-17T01:51:21.415Z,29.4
2018-03-17T01:54:17.968Z,29.5
2018-03-17T02:00:12.019Z,29.7
2018-03-17T02:03:08.992Z,29.8
2018-03-17T02:09:03.167Z,29.8
2018-03-17T02:14:57.040Z,30.1
2018-03-17T02:17:54.469Z,30.1
2018-03-17T02:20:51.063Z,30.2
2018-03-17T02:23:48.043Z,30.4
2018-03-17T02:38:33.131Z,30.8
2018-03-17T02:41:30.044Z,30.8
2018-03-17T02:47:24.136Z,31.1
2018-03-17T02:50:21.043Z,31
2018-03-17T02:56:15.177Z,31.2
2018-03-17T03:02:09.188Z,31.5
2018-03-17T03:05:06.102Z,31.6
2018-03-17T03:11:00.644Z,31.7
2018-03-17T03:13:57.127Z,31.7
2018-03-17T03:16:54.126Z,31.8
2018-03-17T03:28:42.152Z,32
2018-03-17T03:31:39.533Z,32.1
2018-03-17T03:34:36.154Z,32.2
2018-03-17T03:37:33.576Z,32.2
2018-03-17T03:40:30.182Z,32.3
2018-03-17T03:43:27.127Z,32.4
2018-03-17T03:49:21.272Z,32.6
2018-03-17T03:52:18.178Z,32.6
2018-03-17T03:55:15.160Z,32.7
2018-03-17T03:58:12.191Z,32.7
2018-03-17T04:01:09.206Z,32.7
2018-03-17T04:04:06.192Z,32.8
2018-03-17T04:07:03.230Z,32.8
2018-03-17T04:10:00.186Z,32.9
2018-03-17T04:12:57.304Z,33
2018-03-17T04:15:54.281Z,33.1
2018-03-17T04:18:51.229Z,33.2
2018-03-17T04:21:48.179Z,33.2
2018-03-17T04:24:45.283Z,33.3
2018-03-17T04:27:42.190Z,33.4
2018-03-17T04:30:39.291Z,33.6
2018-03-17T04:33:36.255Z,33.6
2018-03-17T04:36:33.230Z,33.6
2018-03-17T04:39:30.228Z,33.7
2018-03-17T04:42:27.809Z,33.7
2018-03-17T04:45:24.236Z,33.8
2018-03-17T05:20:48.405Z,35
2018-03-17T05:23:45.398Z,35.1
2018-03-17T05:26:42.345Z,35.1
2018-03-17T05:32:36.372Z,35.2
2018-03-17T05:35:33.406Z,35.3
2018-03-17T05:50:18.833Z,35.4
2018-03-17T05:53:15.349Z,35.4
2018-03-17T06:10:57.870Z,35.7
2018-03-17T06:13:54.384Z,35.8
2018-03-17T06:16:51.422Z,35.8
2018-03-17T06:19:48.548Z,35.8
2018-03-17T06:28:39.457Z,35.8
2018-03-17T06:31:36.412Z,35.8
2018-03-17T06:37:30.472Z,35.9
2018-03-17T06:40:27.569Z,36
2018-03-17T06:46:21.475Z,35.9
2018-03-17T06:55:12.533Z,36
2018-03-17T07:12:54.974Z,35.9
2018-03-17T07:15:51.514Z,35.9
2018-03-17T07:33:33.564Z,36
2018-03-17T07:36:30.540Z,36
2018-03-17T07:39:27.581Z,36
2018-03-17T07:48:18.665Z,36
2018-03-17T07:51:15.574Z,36
2018-03-17T07:54:12.596Z,35.9
2018-03-17T07:57:09.977Z,36
2018-03-17T08:03:03.618Z,36.1
2018-03-17T08:08:58.408Z,36.2
2018-03-17T08:11:54.719Z,36.2
2018-03-17T08:14:51.634Z,36.2
2018-03-17T08:17:48.600Z,36.2
2018-03-17T08:20:45.737Z,36.2
2018-03-17T08:23:42.583Z,36.1
2018-03-17T08:26:39.658Z,36
2018-03-17T08:32:33.709Z,36
2018-03-17T08:35:30.623Z,35.9
2018-03-17T08:38:27.716Z,35.8
2018-03-17T08:41:25.051Z,35.7
2018-03-17T08:44:21.841Z,35.7
2018-03-17T08:50:15.711Z,35.6
2018-03-17T08:53:12.662Z,35.5
2018-03-17T08:59:06.734Z,35.3
2018-03-17T09:02:03.725Z,35.3
2018-03-17T09:05:00.721Z,35.3
2018-03-17T09:07:57.694Z,35.2
2018-03-17T09:10:54.844Z,35.1
2018-03-17T09:16:49.150Z,35
2018-03-17T09:22:42.753Z,35
2018-03-17T09:34:30.788Z,34.9
2018-03-17T09:40:24.789Z,34.7
2018-03-17T09:49:15.930Z,34.5
2018-03-17T09:55:09.818Z,34.1
2018-03-17T09:58:06.774Z,34
2018-03-17T10:04:00.845Z,34
2018-03-17T10:06:57.784Z,33.9
2018-03-17T10:15:48.862Z,33.6
2018-03-17T10:24:39.938Z,33.4
2018-03-17T10:27:36.837Z,33.3
2018-03-17T10:30:33.866Z,33.2
2018-03-17T10:39:24.871Z,33
2018-03-17T10:42:21.915Z,32.9
2018-03-17T10:48:16.051Z,32.7
2018-03-17T10:51:12.930Z,32.6
2018-03-17T11:05:58.015Z,32.3
2018-03-17T11:08:54.962Z,32.2
2018-03-17T11:11:52.084Z,32.2
2018-03-17T11:23:40.042Z,32
2018-03-17T11:26:36.965Z,31.9
2018-03-17T11:29:33.981Z,31.8
2018-03-17T11:32:30.954Z,31.8
2018-03-17T11:35:28.077Z,31.7
2018-03-17T11:38:24.951Z,31.7
2018-03-17T11:41:23.028Z,31.7
2018-03-17T11:44:19.387Z,31.6
2018-03-17T11:47:16.062Z,31.6
2018-03-17T11:50:12.999Z,31.6
2018-03-17T11:53:10.037Z,31.5
2018-03-17T12:02:01.035Z,31.4
2018-03-17T12:10:52.514Z,31.3
2018-03-17T12:13:49.210Z,31.3
2018-03-17T12:16:46.054Z,31.3
2018-03-17T12:19:43.029Z,31.2
2018-03-17T12:22:40.101Z,31.2
2018-03-17T12:34:28.090Z,31.1
2018-03-17T12:37:25.493Z,31
2018-03-17T12:43:19.203Z,31
2018-03-17T12:46:16.042Z,31
2018-03-17T12:49:13.109Z,31
2018-03-17T12:52:10.129Z,30.9
2018-03-17T12:55:07.237Z,30.9
2018-03-17T12:58:04.549Z,30.9
2018-03-17T13:01:01.272Z,30.8
2018-03-17T13:03:58.497Z,30.8
2018-03-17T13:06:55.320Z,30.8
2018-03-17T13:12:49.223Z,30.8
2018-03-17T13:15:46.149Z,30.8
2018-03-17T13:27:34.307Z,30.6
2018-03-17T13:30:31.109Z,30.6
2018-03-17T13:45:16.365Z,30.6
2018-03-17T13:48:13.206Z,30.5
2018-03-17T13:51:10.214Z,30.5
2018-03-17T13:54:07.596Z,30.5
2018-03-17T13:57:04.356Z,30.5
2018-03-17T14:00:01.145Z,30.5
2018-03-17T14:02:58.519Z,30.5
2018-03-17T14:05:55.215Z,30.4
2018-03-17T14:08:52.406Z,30.4
2018-03-17T14:14:46.460Z,30.4
2018-03-17T14:17:43.204Z,30.4
2018-03-17T14:20:40.273Z,30.4
2018-03-17T14:26:34.361Z,30.3
2018-03-17T14:35:25.683Z,30.2
2018-03-17T14:38:22.222Z,30.2
2018-03-17T14:41:19.406Z,30.3
2018-03-17T14:44:16.288Z,30.2
2018-03-17T14:47:13.386Z,30.1
2018-03-17T14:56:04.312Z,30.1
2018-03-17T14:59:01.319Z,30
2018-03-17T15:04:55.438Z,30
2018-03-17T15:07:52.255Z,30
2018-03-17T15:10:49.413Z,30
2018-03-17T15:13:46.340Z,30
2018-03-17T15:16:43.382Z,30
2018-03-17T15:19:40.334Z,30
2018-03-17T15:25:34.352Z,29.9
2018-03-17T15:28:31.305Z,29.9
2018-03-17T15:31:28.370Z,29.9
2018-03-17T15:34:25.330Z,29.8
2018-03-17T15:40:19.403Z,29.8
2018-03-17T15:43:16.344Z,29.8
2018-03-17T15:46:13.398Z,29.7
2018-03-17T15:49:10.334Z,29.7
2018-03-17T15:52:07.532Z,29.7
2018-03-17T15:55:04.319Z,29.6
2018-03-17T15:58:01.561Z,29.6
2018-03-17T16:00:58.368Z,29.6
2018-03-17T16:03:55.532Z,29.5
2018-03-17T16:06:52.378Z,29.5
2018-03-17T16:09:49.577Z,29.4
2018-03-17T16:18:40.421Z,29.3
2018-03-17T16:21:37.334Z,29.2
2018-03-17T16:24:34.433Z,29.2
2018-03-17T16:30:28.427Z,29
2018-03-17T16:33:25.371Z,29
2018-03-17T16:36:22.443Z,29
2018-03-17T16:45:13.536Z,29
2018-03-17T16:48:10.390Z,28.9
2018-03-17T16:51:07.485Z,28.9
2018-03-17T16:57:01.468Z,28.9
2018-03-17T16:59:58.420Z,28.9
2018-03-17T17:02:55.782Z,28.9
2018-03-17T17:14:43.927Z,28.8
2018-03-17T17:20:37.510Z,28.8
2018-03-17T17:23:34.461Z,28.7
2018-03-17T17:26:31.526Z,28.7
2018-03-17T17:38:19.534Z,28.6
2018-03-17T17:41:16.580Z,28.6
2018-03-17T17:44:14.059Z,28.6
2018-03-17T17:50:07.538Z,28.6
2018-03-17T17:53:04.505Z,28.6
2018-03-17T17:56:01.589Z,28.6
2018-03-17T17:58:58.544Z,28.6
2018-03-17T18:01:55.558Z,28.6
2018-03-17T18:04:52.525Z,28.6
2018-03-17T18:07:49.646Z,28.6
2018-03-17T18:10:46.561Z,28.6
2018-03-17T18:16:40.619Z,28.6
2018-03-17T18:19:37.957Z,28.6
2018-03-17T18:34:22.601Z,28.6
2018-03-17T18:37:19.592Z,28.6
2018-03-17T18:40:17.022Z,28.7
2018-03-17T18:43:13.745Z,28.7
2018-03-17T18:49:07.640Z,28.8
2018-03-17T18:52:04.587Z,28.8
2018-03-17T18:55:01.658Z,28.8
2018-03-17T18:57:58.627Z,28.8
2018-03-17T19:00:55.632Z,28.8
2018-03-17T19:03:52.988Z,28.8
2018-03-17T19:06:49.649Z,28.9
2018-03-17T19:12:44.210Z,28.9
2018-03-17T19:18:37.665Z,28.9
2018-03-17T19:21:34.626Z,28.9
2018-03-17T19:24:31.801Z,28.9
2018-03-17T19:27:28.662Z,28.9
2018-03-17T19:30:25.697Z,28.9
2018-03-17T19:33:22.624Z,28.9
2018-03-17T19:36:19.700Z,28.9
2018-03-17T19:39:16.714Z,29
2018-03-17T19:42:13.925Z,29
2018-03-17T19:45:10.706Z,29
2018-03-17T19:48:08.213Z,29
2018-03-17T19:51:04.692Z,29
2018-03-17T19:56:58.724Z,29
2018-03-17T19:59:55.679Z,29
2018-03-17T20:02:52.812Z,29
2018-03-17T20:11:43.856Z,29
2018-03-17T20:14:41.106Z,28.9
2018-03-17T20:23:31.746Z,28.8
2018-03-17T20:32:22.774Z,28.6
2018-03-17T20:35:19.746Z,28.5
2018-03-17T20:38:16.887Z,28.4
2018-03-17T20:41:13.976Z,28.3
2018-03-17T20:44:11.228Z,28.2
2018-03-17T20:47:07.783Z,28.2
2018-03-17T20:53:01.844Z,28
2018-03-17T20:55:58.790Z,28
2018-03-17T20:58:56.593Z,27.9
2018-03-17T21:01:52.904Z,27.9
2018-03-17T21:04:50.341Z,27.9
2018-03-17T21:07:46.823Z,27.8
2018-03-17T21:10:43.838Z,27.8
2018-03-17T21:22:31.937Z,27.9
2018-03-17T21:25:28.825Z,27.9
2018-03-17T21:28:25.986Z,27.9
2018-03-17T21:31:22.849Z,27.9
2018-03-17T21:34:20.360Z,27.9
2018-03-17T21:37:17.277Z,27.9
2018-03-17T21:43:11.464Z,27.8
2018-03-17T21:46:08.318Z,27.8
2018-03-17T21:49:04.877Z,27.8
2018-03-17T21:52:01.851Z,27.8
2018-03-17T21:54:58.915Z,27.8
2018-03-17T21:57:55.896Z,27.8
2018-03-17T22:00:53.346Z,27.8
2018-03-17T22:06:47.337Z,27.8
2018-03-17T22:09:44.320Z,27.8
2018-03-17T22:12:41.327Z,27.8
2018-03-17T22:15:37.906Z,27.8
2018-03-17T22:18:34.954Z,27.8
2018-03-17T22:21:32.081Z,27.8
2018-03-17T22:27:26.347Z,27.8
2018-03-17T22:30:22.891Z,27.8
2018-03-17T22:33:19.980Z,27.8
2018-03-17T22:45:08.422Z,27.7
2018-03-17T22:48:04.906Z,27.7
2018-03-17T22:51:01.958Z,27.6
2018-03-17T22:53:58.920Z,27.6
2018-03-17T23:05:47.550Z,27.4
2018-03-17T23:08:43.942Z,27.4
2018-03-17T23:17:35.114Z,27.3
2018-03-17T23:20:31.962Z,27.3
2018-03-17T23:23:29.484Z,27.3
2018-03-17T23:29:23.665Z,27.3
2018-03-17T23:35:17.043Z,27.4
2018-03-17T23:38:13.982Z,27.3
2018-03-17T23:41:11.089Z,27.3
2018-03-17T23:44:08.507Z,27.3
2018-03-17T23:47:05.235Z,27.4
2018-03-17T23:50:02.642Z,27.4
2018-03-17T23:52:59.551Z,27.3
2018-03-17T23:58:53.078Z,27.4
